East Keansburg, New Jersey
Current Conditions -  °F | °C
As of 4:55 PM on Friday 28 Nov 2014 (Local Time) from KLDJ Reporting Station
Clear Clear  
Wind Chill: 28°   Ceiling: Unl
Heat Index: 36°   Visibility: 10mi
Dew Point: 16°   Wind: 12mph
Humidity: 46%   Direction: 310°NW
Pressure: 30.24"   Gusts: 20mph
Location:  40.4416°N, 74.1294°W
Report Text: KLDJ 282155Z AUTO 31010G17KT 10SM CLR 02/M09 A3024 RMK AO2 T00201087
Loading
Personal Weather Stations






























Interactive Weather Map New forecast layout! Learn more

10-Day Weather Forecast

Advertisements
Track Severe Weather on mobile